Time;durP1;ratioP1;P1;durP2;ratioP2;P2;SDS_P1;SDS_P2;PMS_P1;PMS_P2;Temp;Humidity;BMP_temperature;BMP_pressure;BME280_temperature;BME280_humidity;BME280_pressure;Samples;Min_cycle;Max_cycle;Signal;HPM_P1;HPM_P2
2023/11/22 00:02:09;;;;;;;11.02;2.70;;;8.00;99.90;;;;;;5093814;28;20032;-69
2023/11/22 00:04:35;;;;;;;13.82;3.00;;;8.00;99.90;;;;;;5093811;28;20028;-69
2023/11/22 00:07:02;;;;;;;8.02;2.47;;;7.90;99.90;;;;;;5092087;28;20122;-69
2023/11/22 00:09:29;;;;;;;10.40;2.40;;;7.80;99.90;;;;;;5092724;28;20048;-69
2023/11/22 00:11:56;;;;;;;12.85;3.10;;;7.80;99.90;;;;;;5094109;28;20123;-69
2023/11/22 00:14:22;;;;;;;15.30;2.47;;;7.80;99.90;;;;;;5093715;28;20481;-69
2023/11/22 00:16:49;;;;;;;10.30;2.60;;;7.70;99.90;;;;;;5093351;28;20040;-69
2023/11/22 00:19:18;;;;;;;10.05;2.40;;;7.70;99.90;;;;;;5093025;28;20522;-69
2023/11/22 00:21:44;;;;;;;11.02;2.40;;;7.60;99.90;;;;;;5093695;28;20036;-69
2023/11/22 00:24:11;;;;;;;8.20;2.13;;;7.60;99.90;;;;;;5093241;28;20036;-69
2023/11/22 00:26:38;;;;;;;11.52;2.40;;;7.60;99.90;;;;;;5093525;28;20066;-69
2023/11/22 00:29:05;;;;;;;11.52;2.40;;;7.50;99.90;;;;;;5093267;28;20082;-69
2023/11/22 00:31:31;;;;;;;10.23;2.60;;;7.40;99.90;;;;;;5092297;28;20378;-69
2023/11/22 00:33:58;;;;;;;11.77;3.00;;;7.40;99.90;;;;;;5094140;28;20065;-69
2023/11/22 00:36:25;;;;;;;11.30;3.17;;;7.40;99.90;;;;;;5092837;28;20048;-69
2023/11/22 00:38:52;;;;;;;7.80;2.35;;;7.40;99.90;;;;;;5092166;28;20051;-69
2023/11/22 00:41:18;;;;;;;10.75;2.78;;;7.40;99.90;;;;;;5093183;28;20046;-68
2023/11/22 00:43:45;;;;;;;10.52;2.40;;;7.30;99.90;;;;;;5093288;28;20457;-69
2023/11/22 00:46:12;;;;;;;7.65;2.50;;;7.30;99.90;;;;;;5092976;28;20123;-69
2023/11/22 00:48:39;;;;;;;13.23;3.00;;;7.30;99.90;;;;;;5091995;28;20044;-69
2023/11/22 00:51:08;;;;;;;9.43;2.28;;;7.30;99.90;;;;;;5095078;28;20067;-69
2023/11/22 00:53:35;;;;;;;9.93;2.38;;;7.30;99.90;;;;;;5094903;28;20040;-69
2023/11/22 00:56:02;;;;;;;11.93;2.70;;;7.20;99.90;;;;;;5095409;28;20044;-69
2023/11/22 00:58:29;;;;;;;11.57;3.13;;;7.20;99.90;;;;;;5095478;28;20496;-69
2023/11/22 01:00:56;;;;;;;9.73;2.60;;;7.20;99.90;;;;;;5095773;28;20484;-68
2023/11/22 01:03:23;;;;;;;11.80;2.80;;;7.20;99.90;;;;;;5096823;28;20032;-69
2023/11/22 01:05:50;;;;;;;13.30;3.33;;;7.20;99.90;;;;;;5096560;28;20547;-69
2023/11/22 01:08:17;;;;;;;8.98;2.72;;;7.10;99.90;;;;;;5095183;28;20094;-69
2023/11/22 01:10:44;;;;;;;8.50;2.60;;;7.10;99.90;;;;;;5095322;28;20047;-69
2023/11/22 01:13:11;;;;;;;7.88;2.50;;;7.10;99.90;;;;;;5094805;28;20440;-69
2023/11/22 01:15:38;;;;;;;7.97;2.50;;;7.10;99.90;;;;;;5095028;28;20579;-69
2023/11/22 01:18:05;;;;;;;10.88;3.10;;;7.20;99.90;;;;;;5077134;28;20047;-69
2023/11/22 01:20:33;;;;;;;13.23;3.45;;;7.20;99.90;;;;;;5074644;28;20044;-69
2023/11/22 01:22:59;;;;;;;10.25;2.72;;;7.20;99.90;;;;;;5076071;28;20086;-69
2023/11/22 01:25:28;;;;;;;8.60;2.55;;;7.30;99.90;;;;;;5075681;28;20041;-69
2023/11/22 01:27:54;;;;;;;12.25;2.33;;;7.20;99.90;;;;;;5075174;28;20052;-69
2023/11/22 01:30:21;;;;;;;8.30;2.60;;;7.20;99.90;;;;;;5076113;28;20385;-69
2023/11/22 01:32:49;;;;;;;10.88;2.50;;;7.30;99.90;;;;;;5075786;28;20044;-69
2023/11/22 01:35:16;;;;;;;7.47;2.35;;;7.30;99.90;;;;;;5075624;28;20501;-69
2023/11/22 01:37:43;;;;;;;7.88;2.55;;;7.20;99.90;;;;;;5075333;28;20464;-69
2023/11/22 01:40:10;;;;;;;12.60;2.85;;;7.20;99.90;;;;;;5074443;28;20053;-69
2023/11/22 01:42:39;;;;;;;10.80;2.88;;;7.20;99.90;;;;;;5076082;28;20120;-69
2023/11/22 01:45:06;;;;;;;10.45;2.65;;;7.30;99.90;;;;;;5074145;28;20123;-69
2023/11/22 01:47:33;;;;;;;7.40;2.75;;;7.30;99.90;;;;;;5075566;28;20051;-69
2023/11/22 01:50:00;;;;;;;9.63;2.53;;;7.30;99.90;;;;;;5073630;28;20139;-69
2023/11/22 01:52:26;;;;;;;9.45;2.83;;;7.30;99.90;;;;;;5074312;28;20036;-69
2023/11/22 01:54:55;;;;;;;8.15;2.60;;;7.40;99.90;;;;;;5073976;28;20083;-69
2023/11/22 01:57:22;;;;;;;10.75;2.88;;;7.40;99.90;;;;;;5075730;28;20043;-69
2023/11/22 01:59:48;;;;;;;8.02;2.60;;;7.40;99.90;;;;;;5073916;28;20036;-69
2023/11/22 02:02:15;;;;;;;11.02;3.00;;;7.40;99.90;;;;;;5073696;28;20506;-69
2023/11/22 02:04:43;;;;;;;9.90;2.47;;;7.40;99.90;;;;;;5073932;28;20351;-69
2023/11/22 02:07:10;;;;;;;9.65;3.33;;;7.40;99.90;;;;;;5075329;28;20044;-69
2023/11/22 02:09:37;;;;;;;11.43;2.97;;;7.40;99.90;;;;;;5074100;28;20040;-69
2023/11/22 02:12:03;;;;;;;7.65;2.58;;;7.40;99.90;;;;;;5074194;28;20048;-69
2023/11/22 02:14:30;;;;;;;9.82;2.45;;;7.40;99.90;;;;;;5073407;28;20045;-69
2023/11/22 02:16:58;;;;;;;12.15;3.10;;;7.40;99.90;;;;;;5073265;28;20036;-69
2023/11/22 02:19:25;;;;;;;10.45;2.85;;;7.40;99.90;;;;;;5074832;28;20119;-69
2023/11/22 02:21:52;;;;;;;6.75;2.60;;;7.40;99.90;;;;;;5075101;28;20401;-69
2023/11/22 02:24:19;;;;;;;7.63;2.90;;;7.40;99.90;;;;;;5073099;28;20098;-69
2023/11/22 02:26:46;;;;;;;9.13;2.80;;;7.40;99.90;;;;;;5074477;28;20040;-69
2023/11/22 02:29:13;;;;;;;11.48;2.90;;;7.40;99.90;;;;;;5074344;28;20119;-69
2023/11/22 02:31:40;;;;;;;6.95;2.88;;;7.40;99.90;;;;;;5074834;28;20037;-69
2023/11/22 02:34:07;;;;;;;11.10;2.75;;;7.40;99.90;;;;;;5074813;28;20064;-69
2023/11/22 02:36:34;;;;;;;8.13;2.50;;;7.40;99.90;;;;;;5072534;28;20052;-69
2023/11/22 02:39:00;;;;;;;9.25;2.83;;;7.40;99.90;;;;;;5072833;28;20485;-69
2023/11/22 02:41:29;;;;;;;10.00;3.53;;;7.40;99.90;;;;;;5072981;28;20473;-69
2023/11/22 02:43:56;;;;;;;11.18;2.80;;;7.40;99.90;;;;;;5072823;28;20106;-69
2023/11/22 02:46:23;;;;;;;11.23;3.40;;;7.40;99.90;;;;;;5073067;28;20054;-69
2023/11/22 02:48:50;;;;;;;8.85;2.70;;;7.30;99.90;;;;;;5072535;28;20052;-69
2023/11/22 02:51:17;;;;;;;7.82;3.30;;;7.30;99.90;;;;;;5074580;28;20370;-69
2023/11/22 02:53:45;;;;;;;13.00;3.53;;;7.30;99.90;;;;;;5073259;28;20045;-69
2023/11/22 02:56:12;;;;;;;6.65;2.90;;;7.30;99.90;;;;;;5074146;28;20420;-69
2023/11/22 02:58:39;;;;;;;11.68;3.10;;;7.30;99.90;;;;;;5073709;28;20118;-69
2023/11/22 03:01:07;;;;;;;11.25;3.15;;;7.30;99.90;;;;;;5074177;28;20458;-69
2023/11/22 03:03:34;;;;;;;8.55;2.97;;;7.30;99.90;;;;;;5074416;28;20082;-69
2023/11/22 03:06:01;;;;;;;11.38;3.40;;;7.30;99.90;;;;;;5074078;28;20465;-69
2023/11/22 03:08:27;;;;;;;9.98;3.50;;;7.20;99.90;;;;;;5074017;28;20047;-69
2023/11/22 03:10:54;;;;;;;12.15;3.40;;;7.20;99.90;;;;;;5073841;28;20458;-69
2023/11/22 03:13:21;;;;;;;12.20;3.50;;;7.20;99.90;;;;;;5073329;28;20040;-69
2023/11/22 03:15:48;;;;;;;10.85;3.60;;;7.20;99.90;;;;;;5072549;28;20485;-69
2023/11/22 03:18:16;;;;;;;11.52;3.40;;;7.10;99.90;;;;;;5072736;28;20135;-69
2023/11/22 03:20:43;;;;;;;8.27;3.20;;;7.10;99.90;;;;;;5073778;28;20456;-69
2023/11/22 03:23:16;;;;;;;13.25;3.58;;;7.10;99.90;;;;;;5073882;28;20390;-69
2023/11/22 03:25:44;;;;;;;13.43;3.25;;;7.10;99.90;;;;;;5074029;28;20045;-69
2023/11/22 03:28:12;;;;;;;10.45;3.50;;;7.10;99.90;;;;;;5073441;28;20090;-70
2023/11/22 03:30:40;;;;;;;15.80;3.70;;;7.00;99.90;;;;;;5073766;28;20124;-69
2023/11/22 03:33:08;;;;;;;10.57;3.72;;;7.10;99.90;;;;;;5072060;28;20046;-69
2023/11/22 03:35:34;;;;;;;10.57;3.42;;;7.10;99.90;;;;;;5073666;28;20044;-69
2023/11/22 03:38:02;;;;;;;11.68;3.75;;;7.10;99.90;;;;;;5072131;28;20044;-69
2023/11/22 03:40:29;;;;;;;11.48;3.47;;;7.10;99.90;;;;;;5073543;28;20124;-69
2023/11/22 03:42:56;;;;;;;12.20;3.45;;;7.10;99.90;;;;;;5072188;28;20041;-69
2023/11/22 03:45:23;;;;;;;10.90;3.80;;;7.10;99.90;;;;;;5073205;28;20047;-69
2023/11/22 03:47:49;;;;;;;14.68;3.47;;;7.10;99.90;;;;;;5073765;28;20543;-70
2023/11/22 03:50:17;;;;;;;12.63;3.70;;;7.10;99.90;;;;;;5073761;28;20044;-69
2023/11/22 03:52:43;;;;;;;13.23;3.90;;;7.10;99.90;;;;;;5073189;28;20097;-69
2023/11/22 03:55:10;;;;;;;11.77;3.95;;;7.10;99.90;;;;;;5055384;28;20126;-69
2023/11/22 03:57:37;;;;;;;8.75;3.60;;;7.10;99.90;;;;;;5073378;28;20114;-69
2023/11/22 04:00:06;;;;;;;15.35;3.92;;;7.00;99.90;;;;;;5073415;28;20047;-69
2023/11/22 04:02:37;;;;;;;9.77;3.72;;;7.00;99.90;;;;;;5073833;28;20068;-69
2023/11/22 04:05:05;;;;;;;8.95;3.15;;;6.90;99.90;;;;;;5071827;28;20098;-69
2023/11/22 04:07:32;;;;;;;13.80;3.95;;;6.90;99.90;;;;;;5073146;28;20051;-69
2023/11/22 04:09:59;;;;;;;11.15;4.55;;;6.80;99.90;;;;;;5073179;28;20041;-69
2023/11/22 04:12:26;;;;;;;11.85;3.70;;;6.80;99.90;;;;;;5072957;28;20505;-69
2023/11/22 04:14:53;;;;;;;10.60;4.25;;;6.70;99.90;;;;;;5073494;28;20036;-69
2023/11/22 04:17:20;;;;;;;10.52;3.83;;;6.70;99.90;;;;;;5072812;28;20036;-69
2023/11/22 04:19:47;;;;;;;8.40;3.65;;;6.60;99.90;;;;;;5072604;28;20093;-69
2023/11/22 04:22:14;;;;;;;10.85;3.50;;;6.60;99.90;;;;;;5073132;28;20038;-69
2023/11/22 04:24:41;;;;;;;10.25;3.85;;;6.60;99.90;;;;;;5075127;28;20040;-69
2023/11/22 04:27:07;;;;;;;11.13;3.85;;;6.60;99.90;;;;;;5077016;28;20036;-70
2023/11/22 04:29:34;;;;;;;9.98;3.92;;;6.60;99.90;;;;;;5075371;28;20048;-69
2023/11/22 04:32:01;;;;;;;11.73;3.67;;;6.50;99.90;;;;;;5076976;28;20043;-69
2023/11/22 04:34:28;;;;;;;9.13;3.97;;;6.50;99.90;;;;;;5076568;28;20416;-69
2023/11/22 04:36:55;;;;;;;13.15;3.35;;;6.50;99.90;;;;;;5076482;28;20056;-69
2023/11/22 04:39:22;;;;;;;12.93;3.45;;;6.50;99.90;;;;;;5076805;28;20037;-69
2023/11/22 04:41:48;;;;;;;17.67;3.80;;;6.50;99.90;;;;;;5076790;28;20041;-69
2023/11/22 04:44:15;;;;;;;11.27;3.42;;;6.50;99.90;;;;;;5076476;28;20040;-70
2023/11/22 04:46:42;;;;;;;8.68;3.72;;;6.50;99.90;;;;;;5076800;28;20080;-69
2023/11/22 04:49:09;;;;;;;10.52;3.42;;;6.50;99.90;;;;;;5076247;28;20413;-69
2023/11/22 04:51:36;;;;;;;13.75;4.45;;;6.50;99.90;;;;;;5076823;28;20043;-69
2023/11/22 04:54:03;;;;;;;14.52;4.03;;;6.40;99.90;;;;;;5075955;28;20063;-69
2023/11/22 04:56:29;;;;;;;11.18;3.58;;;6.40;99.90;;;;;;5076215;28;20044;-69
2023/11/22 04:58:56;;;;;;;8.50;3.25;;;6.40;99.90;;;;;;5076159;28;20043;-69
2023/11/22 05:01:25;;;;;;;11.52;3.50;;;6.40;99.90;;;;;;5076725;28;20036;-69
2023/11/22 05:03:52;;;;;;;9.45;3.97;;;6.40;99.90;;;;;;5076298;28;20033;-69
2023/11/22 05:06:19;;;;;;;9.07;3.70;;;6.30;99.90;;;;;;5075876;28;20420;-69
2023/11/22 05:08:46;;;;;;;7.28;3.35;;;6.30;99.90;;;;;;5075929;28;20048;-69
2023/11/22 05:11:15;;;;;;;10.85;3.97;;;6.30;99.90;;;;;;5076748;28;20064;-69
2023/11/22 05:13:45;;;;;;;8.77;4.07;;;6.20;99.90;;;;;;5075006;28;20052;-69
2023/11/22 05:16:13;;;;;;;9.10;3.83;;;6.20;99.90;;;;;;5075996;28;20118;-69
2023/11/22 05:18:39;;;;;;;11.15;4.15;;;6.30;99.90;;;;;;5074635;28;20032;-69
2023/11/22 05:21:07;;;;;;;12.55;3.92;;;6.30;99.90;;;;;;5076148;28;20115;-69
2023/11/22 05:23:34;;;;;;;13.07;4.47;;;6.30;99.90;;;;;;5075954;28;20128;-69
2023/11/22 05:26:01;;;;;;;11.57;4.22;;;6.40;99.90;;;;;;5075731;28;20036;-69
2023/11/22 05:28:28;;;;;;;12.57;4.43;;;6.40;99.90;;;;;;5075790;28;20036;-69
2023/11/22 05:30:55;;;;;;;16.05;4.70;;;6.40;99.90;;;;;;5075968;28;20041;-69
2023/11/22 05:33:22;;;;;;;10.98;4.45;;;6.40;99.90;;;;;;5074297;28;20044;-69
2023/11/22 05:35:49;;;;;;;11.60;4.45;;;6.40;99.90;;;;;;5075033;28;20049;-69
2023/11/22 05:38:16;;;;;;;10.85;5.03;;;6.40;99.90;;;;;;5076212;28;20123;-69
2023/11/22 05:40:43;;;;;;;13.55;5.05;;;6.40;99.90;;;;;;5075402;28;20045;-69
2023/11/22 05:43:10;;;;;;;12.88;4.90;;;6.30;99.90;;;;;;5075620;28;20036;-69
2023/11/22 05:45:38;;;;;;;11.07;4.35;;;6.30;99.90;;;;;;5075731;28;20036;-69
2023/11/22 05:48:05;;;;;;;10.52;4.97;;;6.20;99.90;;;;;;5075877;28;20468;-69
2023/11/22 05:50:32;;;;;;;11.02;5.10;;;6.20;99.90;;;;;;5075359;28;20409;-69
2023/11/22 05:53:00;;;;;;;13.35;6.00;;;6.10;99.90;;;;;;5075346;28;20044;-69
2023/11/22 05:55:27;;;;;;;11.07;4.82;;;6.00;99.90;;;;;;5074504;28;20053;-69
2023/11/22 05:57:54;;;;;;;16.15;5.47;;;6.00;99.90;;;;;;5075364;28;20106;-70
2023/11/22 06:00:21;;;;;;;12.25;4.95;;;6.00;99.90;;;;;;5075184;28;20102;-70
2023/11/22 06:02:48;;;;;;;11.93;5.22;;;6.00;99.90;;;;;;5073911;28;20076;-70
2023/11/22 06:05:15;;;;;;;11.65;4.93;;;6.00;99.90;;;;;;5075562;28;20040;-69
2023/11/22 06:07:42;;;;;;;13.02;4.65;;;6.00;99.90;;;;;;5075295;28;20048;-71
2023/11/22 06:10:09;;;;;;;8.88;5.18;;;5.90;99.90;;;;;;5075224;28;20034;-70
2023/11/22 06:12:37;;;;;;;11.93;4.47;;;6.00;99.90;;;;;;5075056;28;20044;-71
2023/11/22 06:15:04;;;;;;;14.48;5.40;;;6.00;99.90;;;;;;5074864;28;20434;-71
2023/11/22 06:17:31;;;;;;;50.53;22.15;;;6.00;99.90;;;;;;5073630;28;20052;-71
2023/11/22 06:19:58;;;;;;;14.25;6.07;;;6.00;99.90;;;;;;5075069;28;20044;-72
2023/11/22 06:22:25;;;;;;;14.25;5.50;;;5.90;99.90;;;;;;5073984;28;20037;-71
2023/11/22 06:24:52;;;;;;;15.98;5.30;;;5.90;99.90;;;;;;5074443;28;20123;-71
2023/11/22 06:27:20;;;;;;;11.85;4.68;;;5.90;99.90;;;;;;5074504;28;20473;-71
2023/11/22 06:29:47;;;;;;;12.07;5.03;;;5.90;99.90;;;;;;5074771;28;20189;-70
2023/11/22 06:32:14;;;;;;;13.77;5.18;;;5.90;99.90;;;;;;5074569;28;20037;-71
2023/11/22 06:34:41;;;;;;;16.70;5.60;;;5.80;99.90;;;;;;5074479;28;20060;-71
2023/11/22 06:37:08;;;;;;;11.02;5.75;;;5.90;99.90;;;;;;5074657;28;20063;-71
2023/11/22 06:39:35;;;;;;;14.65;6.13;;;5.90;99.90;;;;;;5074641;28;20036;-70
2023/11/22 06:42:03;;;;;;;13.27;5.38;;;5.80;99.90;;;;;;5073595;28;20094;-70
2023/11/22 06:44:31;;;;;;;13.95;5.60;;;5.80;99.90;;;;;;5074519;28;20048;-71
2023/11/22 06:46:57;;;;;;;12.07;5.07;;;5.80;99.90;;;;;;5072534;28;20144;-71
2023/11/22 06:49:24;;;;;;;14.63;5.28;;;5.80;99.90;;;;;;5074279;28;20045;-71
2023/11/22 06:51:51;;;;;;;11.95;5.07;;;5.80;99.90;;;;;;5074193;28;20074;-71
2023/11/22 06:54:18;;;;;;;15.40;5.68;;;5.80;99.90;;;;;;5074069;28;20075;-71
2023/11/22 06:56:45;;;;;;;11.90;5.40;;;5.80;99.90;;;;;;5074106;28;20453;-71
2023/11/22 06:59:13;;;;;;;14.05;6.00;;;5.80;99.90;;;;;;5072784;28;20043;-71
2023/11/22 07:01:39;;;;;;;14.70;5.47;;;5.70;99.90;;;;;;5074400;28;20060;-71
2023/11/22 07:04:06;;;;;;;13.20;5.43;;;5.70;99.90;;;;;;5074051;28;20058;-71
2023/11/22 07:06:34;;;;;;;16.92;6.45;;;5.70;99.90;;;;;;5074318;28;20044;-71
2023/11/22 07:09:01;;;;;;;11.25;5.38;;;5.80;99.90;;;;;;5073905;28;20466;-72
2023/11/22 07:11:30;;;;;;;14.07;5.32;;;5.80;99.90;;;;;;5073947;28;20053;-72
2023/11/22 07:13:57;;;;;;;9.35;4.80;;;5.70;99.90;;;;;;5073597;28;20044;-71
2023/11/22 07:16:24;;;;;;;12.60;5.30;;;5.70;99.90;;;;;;5074328;28;20040;-71
2023/11/22 07:18:51;;;;;;;12.05;5.07;;;5.70;99.90;;;;;;5074127;28;20040;-72
2023/11/22 07:21:19;;;;;;;14.43;5.25;;;5.80;99.90;;;;;;5074071;28;20373;-71
2023/11/22 07:23:46;;;;;;;13.52;5.45;;;5.80;99.90;;;;;;5073920;28;20036;-71
2023/11/22 07:26:15;;;;;;;14.30;6.63;;;5.90;99.90;;;;;;5073769;28;20047;-71
2023/11/22 07:28:42;;;;;;;12.65;5.43;;;5.90;99.90;;;;;;5072349;28;20041;-71
2023/11/22 07:31:09;;;;;;;15.10;5.55;;;5.90;99.90;;;;;;5074019;28;20496;-70
2023/11/22 07:33:36;;;;;;;12.52;5.43;;;6.00;99.90;;;;;;5073690;28;20047;-70
2023/11/22 07:36:03;;;;;;;11.48;6.07;;;6.00;99.90;;;;;;5073705;28;20071;-70
2023/11/22 07:38:31;;;;;;;17.20;5.18;;;6.10;99.90;;;;;;5072295;28;20393;-70
2023/11/22 07:40:58;;;;;;;10.55;5.15;;;6.10;99.90;;;;;;5073264;28;20045;-70
2023/11/22 07:43:24;;;;;;;13.75;5.57;;;6.10;99.90;;;;;;5073916;28;20090;-69
2023/11/22 07:45:51;;;;;;;14.98;6.50;;;6.20;99.90;;;;;;5073626;28;20052;-68
2023/11/22 07:48:18;;;;;;;12.43;6.43;;;6.10;99.90;;;;;;5071418;28;20052;-70
2023/11/22 07:50:48;;;;;;;13.43;6.10;;;6.10;99.90;;;;;;5085403;28;20125;-70
2023/11/22 07:53:14;;;;;;;10.63;5.90;;;6.10;99.90;;;;;;5072912;28;20055;-70
2023/11/22 07:55:41;;;;;;;15.82;5.53;;;6.10;99.90;;;;;;5073077;28;20045;-70
2023/11/22 07:58:08;;;;;;;12.27;5.70;;;6.10;99.90;;;;;;5085768;28;20036;-70
2023/11/22 08:00:36;;;;;;;10.40;5.35;;;6.20;99.90;;;;;;5077368;28;20045;-70
2023/11/22 08:03:03;;;;;;;14.93;5.72;;;6.20;99.90;;;;;;5089769;28;20176;-70
2023/11/22 08:05:36;;;;;;;13.07;5.80;;;6.20;99.90;;;;;;5077496;28;20039;-70
2023/11/22 08:08:06;;;;;;;18.90;5.57;;;6.30;99.90;;;;;;5076717;28;20452;-70
2023/11/22 08:10:34;;;;;;;17.70;7.63;;;6.20;99.90;;;;;;5083487;28;20036;-70
2023/11/22 08:13:03;;;;;;;14.07;6.00;;;6.20;99.90;;;;;;5095964;28;20040;-69
2023/11/22 08:15:31;;;;;;;14.77;5.88;;;6.30;99.90;;;;;;5077692;28;20072;-70
2023/11/22 08:18:00;;;;;;;13.23;5.57;;;6.30;99.90;;;;;;5076599;28;20481;-70
2023/11/22 08:20:27;;;;;;;10.15;5.50;;;6.40;99.90;;;;;;5077137;28;20154;-70
2023/11/22 08:22:54;;;;;;;12.20;5.82;;;6.40;99.90;;;;;;5076759;28;20028;-70
2023/11/22 08:25:21;;;;;;;12.52;5.63;;;6.40;99.90;;;;;;5076791;28;20029;-70
2023/11/22 08:27:48;;;;;;;13.70;5.38;;;6.50;99.90;;;;;;5075191;28;20033;-70
2023/11/22 08:30:15;;;;;;;10.90;6.38;;;6.50;99.90;;;;;;5076820;28;20517;-70
2023/11/22 08:32:43;;;;;;;11.73;5.68;;;6.50;99.90;;;;;;5075279;28;20044;-70
2023/11/22 08:35:11;;;;;;;15.32;6.78;;;6.50;99.90;;;;;;5076636;28;20547;-70
2023/11/22 08:37:38;;;;;;;16.08;7.95;;;6.60;99.90;;;;;;5076157;28;20048;-70
2023/11/22 08:40:05;;;;;;;13.32;8.20;;;6.60;99.90;;;;;;5080214;28;20392;-69
2023/11/22 08:42:32;;;;;;;13.93;8.18;;;6.70;99.90;;;;;;5094878;28;20036;-70
2023/11/22 08:44:59;;;;;;;13.55;7.22;;;6.70;99.90;;;;;;5082103;28;20462;-70
2023/11/22 08:47:25;;;;;;;13.98;7.05;;;6.70;99.90;;;;;;5076145;28;20064;-70
2023/11/22 08:49:53;;;;;;;17.35;7.40;;;6.70;99.90;;;;;;5082793;28;20036;-70
2023/11/22 08:52:20;;;;;;;15.07;7.45;;;6.70;99.90;;;;;;5095557;28;20055;-70
2023/11/22 08:54:47;;;;;;;18.42;7.75;;;6.70;99.90;;;;;;5085136;28;20044;-70
2023/11/22 08:57:14;;;;;;;14.48;7.05;;;6.70;99.90;;;;;;5075953;28;20054;-69
2023/11/22 08:59:40;;;;;;;11.60;7.10;;;6.70;99.90;;;;;;5078188;28;20382;-70
2023/11/22 09:02:08;;;;;;;17.85;6.60;;;6.80;99.90;;;;;;5075744;28;20106;-70
2023/11/22 09:04:35;;;;;;;17.67;7.20;;;6.80;99.90;;;;;;5075490;28;20038;-70
2023/11/22 09:07:02;;;;;;;14.52;6.70;;;6.90;99.90;;;;;;5074304;28;20458;-69
2023/11/22 09:09:30;;;;;;;13.82;6.35;;;6.90;99.90;;;;;;5075506;28;20111;-69
2023/11/22 09:11:58;;;;;;;13.68;6.32;;;7.00;99.90;;;;;;5075204;28;20094;-69
2023/11/22 09:14:24;;;;;;;12.00;5.68;;;7.20;99.90;;;;;;5088930;28;20469;-68
2023/11/22 09:16:54;;;;;;;10.25;5.63;;;7.30;99.90;;;;;;5075668;28;20044;-68
2023/11/22 09:19:21;;;;;;;10.93;5.20;;;7.40;99.90;;;;;;5088475;28;20036;-69
2023/11/22 09:21:48;;;;;;;9.70;4.28;;;7.60;99.90;;;;;;5075788;28;20073;-69
2023/11/22 09:24:15;;;;;;;10.75;3.95;;;7.70;99.90;;;;;;5075511;28;20037;-69
2023/11/22 09:26:42;;;;;;;10.73;3.50;;;7.80;99.90;;;;;;5075502;28;20037;-69
2023/11/22 09:29:09;;;;;;;10.00;3.10;;;7.90;99.90;;;;;;5078116;28;20041;-70
2023/11/22 09:31:36;;;;;;;7.22;2.88;;;8.00;99.90;;;;;;5080844;28;20036;-69
2023/11/22 09:34:03;;;;;;;12.95;3.60;;;8.20;99.90;;;;;;5075221;28;20052;-68
2023/11/22 09:36:32;;;;;;;11.00;2.95;;;8.30;99.90;;;;;;5075167;28;20059;-69
2023/11/22 09:38:59;;;;;;;14.70;3.20;;;8.30;99.90;;;;;;5074775;28;20044;-70
2023/11/22 09:41:27;;;;;;;9.05;2.33;;;8.40;99.90;;;;;;5075184;28;20037;-70
2023/11/22 09:43:54;;;;;;;11.15;2.88;;;8.40;99.90;;;;;;5075129;28;20044;-69
2023/11/22 09:46:21;;;;;;;8.98;2.28;;;8.40;99.90;;;;;;5075223;28;20487;-69
2023/11/22 09:48:50;;;;;;;9.55;2.80;;;8.40;99.90;;;;;;5090178;28;20043;-70
2023/11/22 09:51:20;;;;;;;6.35;3.03;;;8.50;99.90;;;;;;5083867;28;20118;-70
2023/11/22 09:53:47;;;;;;;7.45;3.17;;;8.50;99.90;;;;;;5082882;28;20039;-70
2023/11/22 09:56:14;;;;;;;11.57;2.88;;;8.50;99.90;;;;;;5088243;28;20064;-69
2023/11/22 09:58:44;;;;;;;8.73;2.50;;;8.50;99.90;;;;;;5075452;28;20033;-69
2023/11/22 10:01:11;;;;;;;6.72;2.42;;;8.60;99.90;;;;;;5087910;28;20461;-69
2023/11/22 10:03:38;;;;;;;8.93;2.58;;;8.60;99.90;;;;;;5087533;28;20424;-70
2023/11/22 10:06:05;;;;;;;8.30;2.42;;;8.60;99.90;;;;;;5088506;28;20040;-66
2023/11/22 10:08:32;;;;;;;7.13;2.00;;;8.70;99.90;;;;;;5094210;28;20036;-66
2023/11/22 10:11:00;;;;;;;6.57;2.35;;;8.70;99.90;;;;;;5093835;28;20082;-69
2023/11/22 10:13:27;;;;;;;8.48;2.10;;;8.80;99.90;;;;;;5074979;28;20045;-70
2023/11/22 10:15:54;;;;;;;5.90;1.98;;;8.80;99.90;;;;;;5074551;28;20486;-67
2023/11/22 10:18:21;;;;;;;8.18;1.88;;;8.80;99.90;;;;;;5074586;28;20477;-67
2023/11/22 10:20:49;;;;;;;8.57;1.65;;;8.90;99.90;;;;;;5087990;28;20040;-66
2023/11/22 10:23:16;;;;;;;6.93;1.73;;;8.90;99.90;;;;;;5093890;28;20040;-67
2023/11/22 10:25:43;;;;;;;5.72;1.70;;;9.00;99.90;;;;;;5093892;28;20381;-68
2023/11/22 10:28:10;;;;;;;9.35;1.80;;;9.00;99.90;;;;;;5093379;28;20036;-67
2023/11/22 10:30:37;;;;;;;6.50;1.65;;;9.10;99.90;;;;;;5093754;28;20044;-67
2023/11/22 10:33:04;;;;;;;5.45;1.77;;;9.10;99.90;;;;;;5093827;28;20047;-67
2023/11/22 10:35:31;;;;;;;8.32;1.80;;;9.10;99.90;;;;;;5073052;28;20040;-67
2023/11/22 10:37:58;;;;;;;4.50;1.70;;;9.10;99.90;;;;;;5072704;28;20359;-66
2023/11/22 10:40:25;;;;;;;8.65;1.63;;;9.10;99.90;;;;;;5073787;28;20044;-66
2023/11/22 10:42:53;;;;;;;3.65;1.60;;;9.10;99.90;;;;;;5079329;28;20048;-66
2023/11/22 10:45:19;;;;;;;6.60;1.52;;;9.10;99.90;;;;;;5073701;28;20049;-66
2023/11/22 10:47:46;;;;;;;8.35;1.65;;;9.20;99.90;;;;;;5073008;28;20033;-66
2023/11/22 10:50:13;;;;;;;6.25;1.50;;;9.20;99.90;;;;;;5075821;28;20050;-66
2023/11/22 10:52:40;;;;;;;6.05;1.85;;;9.20;99.90;;;;;;5092298;28;20062;-66
2023/11/22 10:55:07;;;;;;;5.68;1.77;;;9.20;99.90;;;;;;5093326;28;20047;-66
2023/11/22 10:57:34;;;;;;;6.32;1.90;;;9.20;99.90;;;;;;5093432;28;20048;-66
2023/11/22 11:00:02;;;;;;;4.40;1.67;;;9.20;99.90;;;;;;5093306;28;20047;-66
2023/11/22 11:02:29;;;;;;;4.75;2.00;;;9.30;99.90;;;;;;5093190;28;20408;-66
2023/11/22 11:04:56;;;;;;;4.72;1.80;;;9.30;99.90;;;;;;5093382;28;20389;-67
2023/11/22 11:07:24;;;;;;;5.60;1.73;;;9.30;99.90;;;;;;5093145;28;20488;-68
2023/11/22 11:09:51;;;;;;;5.32;1.90;;;9.30;99.90;;;;;;5092966;28;20048;-67
2023/11/22 11:12:20;;;;;;;4.20;1.65;;;9.30;99.90;;;;;;5092949;28;20109;-68
2023/11/22 11:14:47;;;;;;;5.20;1.80;;;9.30;99.90;;;;;;5093044;28;20040;-68
2023/11/22 11:17:14;;;;;;;6.07;1.90;;;9.30;99.90;;;;;;5093254;28;20122;-68
2023/11/22 11:19:41;;;;;;;4.72;1.80;;;9.40;99.90;;;;;;5092757;28;20051;-67
2023/11/22 11:22:10;;;;;;;4.47;1.75;;;9.40;99.90;;;;;;5092998;28;20435;-69
2023/11/22 11:24:36;;;;;;;5.88;1.80;;;9.40;99.90;;;;;;5092927;28;20040;-68
2023/11/22 11:27:03;;;;;;;4.53;1.80;;;9.50;99.90;;;;;;5092973;28;20036;-68
2023/11/22 11:29:30;;;;;;;6.05;1.80;;;9.50;99.90;;;;;;5092712;28;20484;-69
2023/11/22 11:31:57;;;;;;;4.57;1.58;;;9.60;99.90;;;;;;5092791;28;20076;-69
2023/11/22 11:34:24;;;;;;;4.97;2.00;;;9.70;99.90;;;;;;5091209;28;20032;-69
2023/11/22 11:36:51;;;;;;;8.68;2.08;;;9.80;99.90;;;;;;5092546;28;20048;-69
2023/11/22 11:39:19;;;;;;;6.18;1.60;;;9.80;99.90;;;;;;5073615;28;20036;-69
2023/11/22 11:41:47;;;;;;;5.95;1.63;;;9.90;99.90;;;;;;5072030;28;20041;-70
2023/11/22 11:44:14;;;;;;;6.30;1.38;;;9.90;99.90;;;;;;5072129;28;20036;-70
2023/11/22 11:46:41;;;;;;;4.07;1.10;;;9.90;99.90;;;;;;5073286;28;20110;-70
2023/11/22 11:49:08;;;;;;;5.38;1.70;;;9.90;99.90;;;;;;5073060;28;20040;-70
2023/11/22 11:51:36;;;;;;;4.82;2.20;;;10.00;99.90;;;;;;5085984;28;20091;-71
2023/11/22 11:54:03;;;;;;;3.90;1.40;;;10.00;99.90;;;;;;5092640;28;20043;-70
2023/11/22 11:56:32;;;;;;;4.18;1.30;;;10.00;99.90;;;;;;5087002;28;20485;-70
2023/11/22 11:58:59;;;;;;;4.40;1.60;;;10.00;99.90;;;;;;5073123;28;20036;-68
2023/11/22 12:01:26;;;;;;;8.05;1.35;;;10.00;99.90;;;;;;5072979;28;20561;-68
2023/11/22 12:03:53;;;;;;;5.85;1.55;;;10.00;99.90;;;;;;5072992;28;20036;-67
2023/11/22 12:06:20;;;;;;;7.68;1.55;;;10.00;99.90;;;;;;5072937;28;20044;-67
2023/11/22 12:08:48;;;;;;;6.72;1.38;;;10.00;99.90;;;;;;5072985;28;20040;-67
2023/11/22 12:11:16;;;;;;;5.50;1.58;;;10.00;99.90;;;;;;5073051;28;20040;-67
2023/11/22 12:13:50;;;;;;;6.20;1.52;;;10.00;99.90;;;;;;5073118;28;20082;-67
2023/11/22 12:16:17;;;;;;;5.35;1.42;;;10.00;99.90;;;;;;5086426;28;20589;-67
2023/11/22 12:18:45;;;;;;;10.50;1.85;;;10.10;99.90;;;;;;5092257;28;20074;-67
2023/11/22 12:21:15;;;;;;;4.80;1.58;;;10.10;99.90;;;;;;5091919;28;20101;-67
2023/11/22 12:23:42;;;;;;;3.83;1.38;;;10.10;99.90;;;;;;5092788;28;20032;-67
2023/11/22 12:26:09;;;;;;;4.93;1.60;;;10.10;99.90;;;;;;5087769;28;20035;-67
2023/11/22 12:28:36;;;;;;;6.22;1.80;;;10.10;99.90;;;;;;5091733;28;20047;-68
2023/11/22 12:31:03;;;;;;;5.90;1.50;;;10.10;99.90;;;;;;5092648;28;20054;-68
2023/11/22 12:33:30;;;;;;;9.68;2.03;;;10.20;99.90;;;;;;5086183;28;20044;-68
2023/11/22 12:35:56;;;;;;;7.07;2.08;;;10.20;99.90;;;;;;5073234;28;20102;-68
2023/11/22 12:38:25;;;;;;;7.22;1.75;;;10.20;99.90;;;;;;5087551;28;20040;-68
2023/11/22 12:40:53;;;;;;;7.45;1.83;;;10.20;99.90;;;;;;5079448;28;20044;-69
2023/11/22 12:43:20;;;;;;;3.88;1.73;;;10.20;99.90;;;;;;5085390;28;20130;-69
2023/11/22 12:45:50;;;;;;;6.22;1.73;;;10.20;99.90;;;;;;5074953;28;20119;-69
2023/11/22 12:48:17;;;;;;;3.92;1.38;;;10.20;99.90;;;;;;5085187;28;20058;-69
2023/11/22 12:50:44;;;;;;;5.80;1.67;;;10.20;99.90;;;;;;5076644;28;20041;-69